createdAt,value
2019-02-14T00:00:28.758Z,102549.00
2019-02-14T00:03:01.877Z,102551.00
2019-02-14T00:05:33.531Z,102550.00
2019-02-14T00:08:05.091Z,102552.00
2019-02-14T00:10:36.926Z,102563.00
2019-02-14T00:13:08.435Z,102559.00
2019-02-14T00:15:39.999Z,102566.00
2019-02-14T00:18:11.520Z,102572.00
2019-02-14T00:20:43.024Z,102566.00
2019-02-14T00:23:32.654Z,102565.00
2019-02-14T00:26:04.292Z,102561.00
2019-02-14T00:28:43.589Z,102550.00
2019-02-14T00:31:15.178Z,102553.00
2019-02-14T00:33:46.753Z,102558.00
2019-02-14T00:36:18.244Z,102552.00
2019-02-14T00:38:49.710Z,102563.00
2019-02-14T00:41:22.225Z,102561.00
2019-02-14T00:43:53.844Z,102559.00
2019-02-14T00:46:25.307Z,102557.00
2019-02-14T00:48:57.045Z,102550.00
2019-02-14T00:51:31.224Z,102547.00
2019-02-14T00:54:02.767Z,102545.00
2019-02-14T00:56:34.307Z,102540.00
2019-02-14T00:59:05.780Z,102545.00
2019-02-14T01:01:37.218Z,102544.00
2019-02-14T01:04:09.023Z,102543.00
2019-02-14T01:06:40.520Z,102544.00
2019-02-14T01:09:12.107Z,102543.00
2019-02-14T01:11:43.572Z,102540.00
2019-02-14T01:14:15.100Z,102545.00
2019-02-14T01:16:46.808Z,102547.00
2019-02-14T01:19:37.527Z,102550.00
2019-02-14T01:22:08.980Z,102558.00
2019-02-14T01:24:41.060Z,102553.00
2019-02-14T01:27:12.524Z,102555.00
2019-02-14T01:29:44.800Z,102556.00
2019-02-14T01:32:16.328Z,102554.00
2019-02-14T01:34:47.828Z,102540.00
2019-02-14T01:37:21.058Z,102544.00
2019-02-14T01:40:11.558Z,102536.00
2019-02-14T01:42:43.007Z,102521.00
2019-02-14T01:45:14.502Z,102525.00
2019-02-14T01:47:45.989Z,102516.00
2019-02-14T01:50:17.501Z,102520.00
2019-02-14T01:52:48.954Z,102522.00
2019-02-14T01:55:20.509Z,102526.00
2019-02-14T01:57:52.039Z,102522.00
2019-02-14T02:00:23.729Z,102520.00
2019-02-14T02:02:55.171Z,102520.00
2019-02-14T02:05:26.648Z,102508.00
2019-02-14T02:08:00.926Z,102501.00
2019-02-14T02:10:32.480Z,102493.00
2019-02-14T02:13:03.976Z,102486.00
2019-02-14T02:15:36.552Z,102483.00
2019-02-14T02:18:08.031Z,102489.00
2019-02-14T02:20:39.578Z,102493.00
2019-02-14T02:23:11.194Z,102499.00
2019-02-14T02:25:42.660Z,102506.00
2019-02-14T02:28:14.141Z,102500.00
2019-02-14T02:30:45.652Z,102506.00
2019-02-14T02:33:17.172Z,102497.00
2019-02-14T02:35:48.719Z,102490.00
2019-02-14T02:38:20.327Z,102498.00
2019-02-14T02:40:51.874Z,102501.00
2019-02-14T02:43:23.378Z,102512.00
2019-02-14T02:45:54.878Z,102512.00
2019-02-14T02:48:26.687Z,102521.00
2019-02-14T02:50:58.188Z,102536.00
2019-02-14T02:53:29.670Z,102521.00
2019-02-14T02:56:01.178Z,102525.00
2019-02-14T02:58:32.778Z,102520.00
2019-02-14T03:01:04.303Z,102520.00
2019-02-14T03:03:35.784Z,102538.00
2019-02-14T03:06:10.693Z,102543.00
2019-02-14T03:08:40.533Z,102533.00
2019-02-14T03:11:11.977Z,102541.00
2019-02-14T03:13:43.410Z,102552.00
2019-02-14T03:16:14.878Z,102551.00
2019-02-14T03:18:46.352Z,102559.00
2019-02-14T03:21:17.828Z,102553.00
2019-02-14T03:23:49.251Z,102557.00
2019-02-14T03:26:21.103Z,102560.00
2019-02-14T03:28:52.530Z,102553.00
2019-02-14T03:31:24.010Z,102550.00
2019-02-14T03:33:55.439Z,102552.00
2019-02-14T03:36:26.936Z,102545.00
2019-02-14T03:38:58.364Z,102540.00
2019-02-14T03:41:29.832Z,102550.00
2019-02-14T03:44:01.463Z,102551.00
2019-02-14T03:46:34.676Z,102547.00
2019-02-14T03:49:06.086Z,102546.00
2019-02-14T03:51:37.586Z,102546.00
2019-02-14T03:54:10.129Z,102544.00
2019-02-14T03:56:41.710Z,102550.00
2019-02-14T03:59:13.219Z,102557.00
2019-02-14T04:01:46.381Z,102559.00
2019-02-14T04:04:17.861Z,102564.00
2019-02-14T04:06:49.365Z,102559.00
2019-02-14T04:09:20.907Z,102576.00
2019-02-14T04:11:52.352Z,102564.00
2019-02-14T04:14:25.837Z,102558.00
2019-02-14T04:16:57.309Z,102543.00
2019-02-14T04:19:29.179Z,102551.00
2019-02-14T04:22:00.651Z,102563.00
2019-02-14T04:24:32.094Z,102560.00
2019-02-14T04:27:03.553Z,102559.00
2019-02-14T04:29:35.009Z,102567.00
2019-02-14T04:32:06.486Z,102566.00
2019-02-14T04:34:37.910Z,102559.00
2019-02-14T04:37:09.368Z,102543.00
2019-02-14T04:39:40.830Z,102556.00
2019-02-14T04:42:12.341Z,102547.00
2019-02-14T04:44:43.826Z,102559.00
2019-02-14T04:47:15.709Z,102563.00
2019-02-14T04:49:47.217Z,102560.00
2019-02-14T04:52:18.693Z,102569.00
2019-02-14T04:54:50.176Z,102579.00
2019-02-14T04:57:21.756Z,102592.00
2019-02-14T05:00:06.019Z,102594.00
2019-02-14T05:02:37.500Z,102597.00
2019-02-14T05:05:09.725Z,102586.00
2019-02-14T05:07:41.206Z,102584.00
2019-02-14T05:10:13.087Z,102570.00
2019-02-14T05:12:44.649Z,102575.00
2019-02-14T05:15:16.114Z,102578.00
2019-02-14T05:17:47.769Z,102589.00
2019-02-14T05:20:19.229Z,102583.00
2019-02-14T05:23:10.155Z,102577.00
2019-02-14T05:25:41.598Z,102571.00
2019-02-14T05:28:13.087Z,102550.00
2019-02-14T05:30:44.553Z,102556.00
2019-02-14T05:33:15.993Z,102569.00
2019-02-14T05:35:47.439Z,102577.00
2019-02-14T05:38:18.999Z,102589.00
2019-02-14T05:40:50.491Z,102599.00
2019-02-14T05:43:22.081Z,102589.00
2019-02-14T05:45:53.604Z,102589.00
2019-02-14T05:48:37.010Z,102587.00
2019-02-14T05:51:08.496Z,102591.00
2019-02-14T05:53:39.952Z,102605.00
2019-02-14T05:56:11.402Z,102607.00
2019-02-14T05:58:42.871Z,102599.00
2019-02-14T06:01:17.637Z,102594.00
2019-02-14T06:03:50.108Z,102593.00
2019-02-14T06:06:21.574Z,102596.00
2019-02-14T06:08:53.065Z,102596.00
2019-02-14T06:11:24.545Z,102587.00
2019-02-14T06:13:55.996Z,102585.00
2019-02-14T06:16:27.737Z,102579.00
2019-02-14T06:18:59.295Z,102594.00
2019-02-14T06:21:30.770Z,102594.00
2019-02-14T06:24:02.392Z,102589.00
2019-02-14T06:26:33.860Z,102593.00
2019-02-14T06:29:05.458Z,102605.00
2019-02-14T06:31:37.518Z,102618.00
2019-02-14T06:34:11.102Z,102618.00
2019-02-14T06:36:42.576Z,102618.00
2019-02-14T06:39:14.080Z,102626.00
2019-02-14T06:41:45.715Z,102621.00
2019-02-14T06:44:17.160Z,102627.00
2019-02-14T06:46:48.665Z,102630.00
2019-02-14T06:49:39.224Z,102627.00
2019-02-14T06:52:11.072Z,102630.00
2019-02-14T06:54:42.620Z,102628.00
2019-02-14T06:57:14.146Z,102628.00
2019-02-14T06:59:45.634Z,102624.00
2019-02-14T07:02:17.084Z,102640.00
2019-02-14T07:04:48.620Z,102645.00
2019-02-14T07:07:20.198Z,102646.00
2019-02-14T07:09:51.684Z,102651.00
2019-02-14T07:12:23.284Z,102656.00
2019-02-14T07:14:54.758Z,102661.00
2019-02-14T07:17:26.208Z,102668.00
2019-02-14T07:19:57.698Z,102654.00
2019-02-14T07:22:29.178Z,102656.00
2019-02-14T07:25:03.732Z,102651.00
2019-02-14T07:27:35.302Z,102648.00
2019-02-14T07:30:13.416Z,102652.00
2019-02-14T07:32:44.944Z,102648.00
2019-02-14T07:35:16.523Z,102661.00
2019-02-14T07:37:48.049Z,102662.00
2019-02-14T07:40:19.594Z,102670.00
2019-02-14T07:42:51.300Z,102675.00
2019-02-14T07:45:26.612Z,102679.00
2019-02-14T07:48:14.756Z,102678.00
2019-02-14T07:50:51.267Z,102674.00
2019-02-14T07:53:26.956Z,102672.00
2019-02-14T07:56:19.207Z,102662.00
2019-02-14T07:58:51.945Z,102659.00
2019-02-14T08:01:52.001Z,102673.00
2019-02-14T08:04:30.994Z,102667.00
2019-02-14T08:07:09.956Z,102674.00
2019-02-14T08:09:48.726Z,102669.00
2019-02-14T08:12:22.212Z,102655.00
2019-02-14T08:14:54.020Z,102655.00
2019-02-14T08:17:26.034Z,102651.00
2019-02-14T08:20:00.317Z,102653.00
2019-02-14T08:22:55.731Z,102662.00
2019-02-14T08:25:50.748Z,102657.00
2019-02-14T08:28:23.987Z,102662.00
2019-02-14T08:31:28.364Z,102652.00
2019-02-14T08:34:00.196Z,102650.00
2019-02-14T08:36:36.388Z,102663.00
2019-02-14T08:39:10.290Z,102655.00
2019-02-14T08:41:41.900Z,102669.00
2019-02-14T08:44:26.342Z,102662.00
2019-02-14T08:49:59.995Z,102648.00
2019-02-14T08:52:55.132Z,102649.00
2019-02-14T08:55:37.221Z,102651.00
2019-02-14T08:58:17.658Z,102650.00
2019-02-14T09:01:06.255Z,102657.00
2019-02-14T09:03:37.826Z,102651.00
2019-02-14T09:06:09.553Z,102654.00
2019-02-14T09:08:41.135Z,102651.00
2019-02-14T09:11:14.317Z,102646.00
2019-02-14T09:13:46.918Z,102646.00
2019-02-14T09:16:18.485Z,102650.00
2019-02-14T09:18:50.177Z,102649.00
2019-02-14T09:21:23.202Z,102649.00
2019-02-14T09:23:59.874Z,102647.00
2019-02-14T09:26:32.508Z,102655.00
2019-02-14T09:29:04.553Z,102658.00
2019-02-14T09:31:36.292Z,102662.00
2019-02-14T09:34:08.397Z,102651.00
2019-02-14T09:36:43.377Z,102644.00
2019-02-14T09:39:18.407Z,102632.00
2019-02-14T09:41:50.017Z,102641.00
2019-02-14T09:44:22.845Z,102638.00
2019-02-14T09:46:54.968Z,102641.00
2019-02-14T09:49:26.704Z,102640.00
2019-02-14T09:51:58.390Z,102627.00
2019-02-14T09:54:31.770Z,102620.00
2019-02-14T09:57:04.997Z,102628.00
2019-02-14T09:59:36.674Z,102622.00
2019-02-14T10:02:09.838Z,102618.00
2019-02-14T10:04:41.412Z,102618.00
2019-02-14T10:07:12.889Z,102617.00
2019-02-14T10:09:44.506Z,102624.00
2019-02-14T10:12:15.984Z,102625.00
2019-02-14T10:14:47.525Z,102626.00
2019-02-14T10:17:22.229Z,102625.00
2019-02-14T10:19:52.423Z,102635.00
2019-02-14T10:22:24.879Z,102628.00
2019-02-14T10:24:58.001Z,102619.00
2019-02-14T10:27:31.049Z,102613.00
2019-02-14T10:30:17.171Z,102619.00
2019-02-14T10:32:48.697Z,102616.00
2019-02-14T10:35:21.255Z,102618.00
2019-02-14T10:37:52.666Z,102626.00
2019-02-14T10:40:24.632Z,102620.00
2019-02-14T10:42:57.507Z,102633.00
2019-02-14T10:45:29.059Z,102631.00
2019-02-14T10:48:01.890Z,102631.00
2019-02-14T10:50:33.477Z,102644.00
2019-02-14T10:53:05.097Z,102639.00
2019-02-14T10:55:38.213Z,102632.00
2019-02-14T10:58:12.993Z,102645.00
2019-02-14T11:00:46.010Z,102631.00
2019-02-14T11:03:17.873Z,102645.00
2019-02-14T11:05:49.557Z,102652.00
2019-02-14T11:08:21.660Z,102642.00
2019-02-14T11:11:05.349Z,102634.00
2019-02-14T11:13:37.395Z,102641.00
2019-02-14T11:16:09.883Z,102646.00
2019-02-14T11:18:44.394Z,102639.00
2019-02-14T11:21:14.610Z,102641.00
2019-02-14T11:23:46.205Z,102649.00
2019-02-14T11:26:17.817Z,102641.00
2019-02-14T11:28:49.519Z,102639.00
2019-02-14T11:31:21.125Z,102632.00
2019-02-14T11:33:52.758Z,102630.00
2019-02-14T11:36:24.574Z,102628.00
2019-02-14T11:38:56.369Z,102627.00
2019-02-14T11:41:30.671Z,102634.00
2019-02-14T11:44:02.955Z,102628.00
2019-02-14T11:46:34.587Z,102624.00
2019-02-14T11:49:06.128Z,102619.00
2019-02-14T11:51:57.450Z,102619.00
2019-02-14T11:54:29.051Z,102622.00
2019-02-14T11:57:00.652Z,102620.00
2019-02-14T11:59:32.215Z,102624.00
2019-02-14T12:02:03.855Z,102624.00
2019-02-14T12:04:35.516Z,102612.00
2019-02-14T12:07:07.033Z,102608.00
2019-02-14T12:09:38.480Z,102608.00
2019-02-14T12:12:10.057Z,102610.00
2019-02-14T12:14:41.650Z,102611.00
2019-02-14T12:17:13.237Z,102608.00
2019-02-14T12:19:44.824Z,102608.00
2019-02-14T12:22:16.305Z,102601.00
2019-02-14T12:24:47.898Z,102590.00
2019-02-14T12:27:19.501Z,102594.00
2019-02-14T12:29:54.025Z,102586.00
2019-02-14T12:32:26.732Z,102588.00
2019-02-14T12:34:58.360Z,102578.00
2019-02-14T12:37:29.876Z,102577.00
2019-02-14T12:40:05.038Z,102573.00
2019-02-14T12:42:36.702Z,102565.00
2019-02-14T12:45:20.059Z,102570.00
2019-02-14T12:47:44.020Z,102566.00
2019-02-14T12:50:15.548Z,102573.00
2019-02-14T12:52:47.061Z,102568.00
2019-02-14T12:55:18.565Z,102565.00
2019-02-14T12:57:50.043Z,102567.00
2019-02-14T13:00:22.381Z,102558.00
2019-02-14T13:02:53.887Z,102549.00
2019-02-14T13:05:25.354Z,102544.00
2019-02-14T13:07:58.058Z,102542.00
2019-02-14T13:10:47.002Z,102538.00
2019-02-14T13:13:18.585Z,102547.00
2019-02-14T13:15:50.087Z,102543.00
2019-02-14T13:18:21.622Z,102541.00
2019-02-14T13:20:55.982Z,102536.00
2019-02-14T13:23:27.534Z,102538.00
2019-02-14T13:25:59.121Z,102541.00
2019-02-14T13:28:33.138Z,102530.00
2019-02-14T13:31:04.808Z,102544.00
2019-02-14T13:33:36.326Z,102527.00
2019-02-14T13:36:12.593Z,102529.00
2019-02-14T13:38:44.154Z,102529.00
2019-02-14T13:41:15.950Z,102536.00
2019-02-14T13:43:48.980Z,102534.00
2019-02-14T13:46:21.596Z,102525.00
2019-02-14T13:48:53.172Z,102528.00
2019-02-14T13:51:27.229Z,102528.00
2019-02-14T13:53:59.119Z,102529.00
2019-02-14T13:56:30.648Z,102534.00
2019-02-14T13:59:02.224Z,102525.00
2019-02-14T14:01:34.856Z,102526.00
2019-02-14T14:04:10.078Z,102532.00
2019-02-14T14:06:41.605Z,102532.00
2019-02-14T14:09:13.835Z,102527.00
2019-02-14T14:11:45.663Z,102530.00
2019-02-14T14:14:17.311Z,102521.00
2019-02-14T14:16:51.796Z,102520.00
2019-02-14T14:19:23.479Z,102525.00
2019-02-14T14:21:55.341Z,102525.00
2019-02-14T14:24:27.117Z,102527.00
2019-02-14T14:26:58.644Z,102529.00
2019-02-14T14:29:30.267Z,102528.00
2019-02-14T14:32:01.832Z,102523.00
2019-02-14T14:34:33.477Z,102515.00
2019-02-14T14:37:06.610Z,102522.00
2019-02-14T14:39:38.181Z,102525.00
2019-02-14T14:42:35.932Z,102520.00
2019-02-14T14:45:09.890Z,102529.00
2019-02-14T14:47:41.343Z,102530.00
2019-02-14T14:50:14.927Z,102532.00
2019-02-14T14:52:46.473Z,102535.00
2019-02-14T14:55:20.617Z,102532.00
2019-02-14T14:57:52.345Z,102530.00
2019-02-14T15:00:26.981Z,102538.00
2019-02-14T15:03:00.219Z,102532.00
2019-02-14T15:05:32.148Z,102534.00
2019-02-14T15:08:04.244Z,102543.00
2019-02-14T15:10:36.062Z,102533.00
2019-02-14T15:13:14.703Z,102533.00
2019-02-14T15:15:51.027Z,102535.00
2019-02-14T15:18:29.666Z,102529.00
2019-02-14T15:21:06.325Z,102537.00
2019-02-14T15:23:37.955Z,102545.00
2019-02-14T15:26:09.497Z,102531.00
2019-02-14T15:28:49.954Z,102530.00
2019-02-14T15:31:40.920Z,102464.00
2019-02-14T15:34:12.463Z,102534.00
2019-02-14T15:37:03.747Z,102531.00
2019-02-14T15:39:35.461Z,102527.00
2019-02-14T15:42:07.178Z,102534.00
2019-02-14T15:44:39.012Z,102531.00
2019-02-14T15:47:14.247Z,102535.00
2019-02-14T15:49:51.379Z,102536.00
2019-02-14T15:52:27.456Z,102530.00
2019-02-14T15:55:02.439Z,102530.00
2019-02-14T15:57:34.179Z,102537.00
2019-02-14T16:00:09.651Z,102531.00
2019-02-14T16:02:39.351Z,102528.00
2019-02-14T16:05:10.988Z,102529.00
2019-02-14T16:07:42.672Z,102524.00
2019-02-14T16:10:18.473Z,102526.00
2019-02-14T16:12:51.274Z,102527.00
2019-02-14T16:15:30.851Z,102529.00
2019-02-14T16:18:12.967Z,102527.00
2019-02-14T16:20:46.569Z,102536.00
2019-02-14T16:23:22.133Z,102532.00
2019-02-14T16:25:54.064Z,102524.00
2019-02-14T16:28:26.053Z,102531.00
2019-02-14T16:30:57.540Z,102532.00
2019-02-14T16:33:29.023Z,102536.00
2019-02-14T16:36:08.112Z,102532.00
2019-02-14T16:38:42.095Z,102537.00
2019-02-14T16:41:13.760Z,102533.00
2019-02-14T16:43:45.775Z,102544.00
2019-02-14T16:46:21.833Z,102538.00
2019-02-14T16:48:53.533Z,102537.00
2019-02-14T16:51:25.142Z,102535.00
2019-02-14T16:53:56.677Z,102530.00
2019-02-14T16:56:28.244Z,102530.00
2019-02-14T16:58:59.770Z,102533.00
2019-02-14T17:01:47.902Z,102531.00
2019-02-14T17:04:23.215Z,102533.00
2019-02-14T17:06:54.983Z,102537.00
2019-02-14T17:09:26.501Z,102538.00
2019-02-14T17:11:58.036Z,102535.00
2019-02-14T17:14:29.544Z,102541.00
2019-02-14T17:17:03.166Z,102537.00
2019-02-14T17:19:36.244Z,102542.00
2019-02-14T17:22:07.860Z,102532.00
2019-02-14T17:24:39.345Z,102535.00
2019-02-14T17:27:10.857Z,102541.00
2019-02-14T17:29:42.539Z,102537.00
2019-02-14T17:32:17.771Z,102533.00
2019-02-14T17:34:51.022Z,102543.00
2019-02-14T17:37:23.698Z,102539.00
2019-02-14T17:39:55.370Z,102534.00
2019-02-14T17:42:27.024Z,102538.00
2019-02-14T17:44:58.600Z,102541.00
2019-02-14T17:47:30.205Z,102547.00
2019-02-14T17:50:01.923Z,102544.00
2019-02-14T17:52:33.461Z,102541.00
2019-02-14T17:55:05.096Z,102544.00
2019-02-14T17:57:57.878Z,102552.00
2019-02-14T18:00:30.520Z,102544.00
2019-02-14T18:03:02.131Z,102532.00
2019-02-14T18:05:35.444Z,102545.00
2019-02-14T18:08:10.882Z,102544.00
2019-02-14T18:10:44.327Z,102540.00
2019-02-14T18:13:16.382Z,102542.00
2019-02-14T18:15:51.306Z,102548.00
2019-02-14T18:18:22.910Z,102537.00
2019-02-14T18:20:54.680Z,102541.00
2019-02-14T18:23:26.475Z,102542.00
2019-02-14T18:25:58.306Z,102543.00
2019-02-14T18:28:30.096Z,102545.00
2019-02-14T18:31:04.673Z,102546.00
2019-02-14T18:33:36.228Z,102546.00
2019-02-14T18:36:07.777Z,102544.00
2019-02-14T18:38:39.354Z,102546.00
2019-02-14T18:41:15.408Z,102540.00
2019-02-14T18:43:47.093Z,102546.00
2019-02-14T18:46:19.876Z,102544.00
2019-02-14T18:48:51.390Z,102541.00
2019-02-14T18:51:27.078Z,102543.00
2019-02-14T18:53:58.787Z,102544.00
2019-02-14T18:56:30.670Z,102541.00
2019-02-14T18:59:03.445Z,102543.00
2019-02-14T19:01:35.442Z,102544.00
2019-02-14T19:04:07.128Z,102541.00
2019-02-14T19:06:38.786Z,102556.00
2019-02-14T19:09:12.286Z,102555.00
2019-02-14T19:11:52.139Z,102556.00
2019-02-14T19:14:26.306Z,102552.00
2019-02-14T19:16:57.936Z,102552.00
2019-02-14T19:19:31.566Z,102559.00
2019-02-14T19:22:03.625Z,102554.00
2019-02-14T19:24:37.272Z,102552.00
2019-02-14T19:27:09.046Z,102548.00
2019-02-14T19:29:41.812Z,102551.00
2019-02-14T19:32:13.611Z,102557.00
2019-02-14T19:34:45.417Z,102558.00
2019-02-14T19:37:17.067Z,102551.00
2019-02-14T19:39:48.656Z,102547.00
2019-02-14T19:42:20.365Z,102546.00
2019-02-14T19:44:52.668Z,102543.00
2019-02-14T19:47:24.319Z,102536.00
2019-02-14T19:49:55.981Z,102539.00
2019-02-14T19:52:33.262Z,102537.00
2019-02-14T19:55:04.845Z,102540.00
2019-02-14T19:57:36.488Z,102536.00
2019-02-14T20:00:15.175Z,102531.00
2019-02-14T20:02:46.910Z,102526.00
2019-02-14T20:05:18.543Z,102528.00
2019-02-14T20:07:50.412Z,102529.00
2019-02-14T20:10:22.093Z,102531.00
2019-02-14T20:12:54.061Z,102523.00
2019-02-14T20:15:25.533Z,102535.00
2019-02-14T20:18:02.179Z,102535.00
2019-02-14T20:20:33.708Z,102525.00
2019-02-14T20:23:05.717Z,102536.00
2019-02-14T20:25:37.294Z,102531.00
2019-02-14T20:28:11.893Z,102531.00
2019-02-14T20:30:44.506Z,102524.00
2019-02-14T20:33:16.255Z,102528.00
2019-02-14T20:35:50.582Z,102539.00
2019-02-14T20:38:22.334Z,102532.00
2019-02-14T20:40:54.054Z,102541.00
2019-02-14T20:43:25.882Z,102543.00
2019-02-14T20:45:57.593Z,102543.00
2019-02-14T20:48:29.303Z,102540.00
2019-02-14T20:51:00.830Z,102544.00
2019-02-14T20:53:32.601Z,102540.00
2019-02-14T20:56:04.206Z,102545.00
2019-02-14T20:58:36.975Z,102546.00
2019-02-14T21:01:09.785Z,102543.00
2019-02-14T21:03:43.515Z,102558.00
2019-02-14T21:06:19.047Z,102555.00
2019-02-14T21:08:53.587Z,102558.00
2019-02-14T21:11:25.625Z,102555.00
2019-02-14T21:13:58.679Z,102562.00
2019-02-14T21:16:30.288Z,102561.00
2019-02-14T21:19:01.902Z,102560.00
2019-02-14T21:21:36.721Z,102563.00
2019-02-14T21:24:10.493Z,102561.00
2019-02-14T21:26:42.039Z,102564.00
2019-02-14T21:29:13.569Z,102563.00
2019-02-14T21:31:45.268Z,102559.00
2019-02-14T21:34:17.201Z,102557.00
2019-02-14T21:36:50.196Z,102557.00
2019-02-14T21:39:23.383Z,102560.00
2019-02-14T21:42:17.619Z,102555.00
2019-02-14T21:44:30.147Z,102556.00
2019-02-14T21:47:03.005Z,102552.00
2019-02-14T21:49:36.077Z,102560.00
2019-02-14T21:52:09.115Z,102565.00
2019-02-14T21:54:41.725Z,102556.00
2019-02-14T21:57:13.249Z,102553.00
2019-02-14T21:59:48.307Z,102558.00
2019-02-14T22:02:24.573Z,102559.00
2019-02-14T22:04:59.048Z,102553.00
2019-02-14T22:07:34.938Z,102564.00
2019-02-14T22:10:05.722Z,102565.00
2019-02-14T22:12:41.390Z,102566.00
2019-02-14T22:15:17.236Z,102558.00
2019-02-14T22:17:51.936Z,102560.00
2019-02-14T22:20:25.262Z,102559.00
2019-02-14T22:22:58.670Z,102560.00
2019-02-14T22:25:33.952Z,102563.00
2019-02-14T22:28:08.374Z,102567.00
2019-02-14T22:30:44.641Z,102562.00
2019-02-14T22:33:16.251Z,102558.00
2019-02-14T22:35:50.421Z,102559.00
2019-02-14T22:38:24.301Z,102555.00
2019-02-14T22:41:00.854Z,102555.00
2019-02-14T22:43:35.602Z,102561.00
2019-02-14T22:46:10.044Z,102559.00
2019-02-14T22:48:41.802Z,102564.00
2019-02-14T22:51:13.309Z,102565.00
2019-02-14T22:53:44.943Z,102562.00
2019-02-14T22:56:16.515Z,102555.00
2019-02-14T22:58:48.027Z,102559.00
2019-02-14T23:01:19.705Z,102565.00
2019-02-14T23:03:51.334Z,102557.00
2019-02-14T23:06:22.940Z,102559.00
2019-02-14T23:08:59.623Z,102561.00
2019-02-14T23:11:36.074Z,102556.00
2019-02-14T23:14:08.673Z,102555.00
2019-02-14T23:17:10.660Z,102555.00
2019-02-14T23:19:43.456Z,102554.00
2019-02-14T23:22:16.733Z,102552.00
2019-02-14T23:24:48.233Z,102563.00
2019-02-14T23:27:19.653Z,102558.00
2019-02-14T23:29:51.139Z,102557.00
2019-02-14T23:32:23.129Z,102561.00
2019-02-14T23:35:05.800Z,102562.00
2019-02-14T23:37:39.037Z,102551.00
2019-02-14T23:40:18.056Z,102556.00
2019-02-14T23:42:49.649Z,102552.00
2019-02-14T23:45:21.194Z,102544.00
2019-02-14T23:47:52.723Z,102548.00
2019-02-14T23:50:24.224Z,102542.00
2019-02-14T23:52:55.774Z,102545.00
2019-02-14T23:55:27.343Z,102550.00
2019-02-14T23:57:59.037Z,102545.00
